Time;durP1;ratioP1;P1;durP2;ratioP2;P2;SDS_P1;SDS_P2;PMS_P1;PMS_P2;Temp;Humidity;BMP_temperature;BMP_pressure;BME280_temperature;BME280_humidity;BME280_pressure;Samples;Min_cycle;Max_cycle;Signal;HPM_P1;HPM_P2
2022/02/05 00:00:35;;;;;;;1.33;1.13;;;17.50;53.70;;;;;;5072892;28;20532;-59
2022/02/05 00:03:21;;;;;;;3.05;1.30;;;17.40;53.70;;;;;;5064394;28;20221;-59
2022/02/05 00:11:15;;;;;;;2.42;1.33;;;17.40;53.70;;;;;;5072198;28;20176;-60
2022/02/05 00:38:37;;;;;;;2.80;1.27;;;17.30;53.70;;;;;;5071999;28;20181;-60
2022/02/05 00:41:16;;;;;;;1.75;1.10;;;17.30;53.60;;;;;;5072024;28;20198;-60
2022/02/05 00:43:51;;;;;;;1.77;1.17;;;17.20;53.50;;;;;;5071486;28;20179;-60
2022/02/05 00:46:17;;;;;;;3.00;1.48;;;17.20;53.50;;;;;;5071644;28;20264;-60
2022/02/05 00:48:42;;;;;;;2.90;1.27;;;17.20;53.50;;;;;;5072120;28;20261;-60
2022/02/05 00:51:26;;;;;;;2.88;1.42;;;17.20;53.50;;;;;;5070993;28;20182;-61
2022/02/05 00:54:04;;;;;;;2.08;1.30;;;17.20;53.50;;;;;;5071852;28;20701;-60
2022/02/05 00:59:07;;;;;;;4.55;1.50;;;17.20;53.50;;;;;;5071927;28;20174;-60
2022/02/05 01:01:33;;;;;;;2.40;0.95;;;17.20;53.50;;;;;;5072268;28;20637;-59
2022/02/05 01:03:58;;;;;;;2.72;1.30;;;17.20;53.50;;;;;;5071035;28;20175;-60
2022/02/05 01:06:24;;;;;;;1.95;1.40;;;17.20;53.40;;;;;;5071829;28;20231;-60
2022/02/05 01:08:50;;;;;;;3.25;1.50;;;17.20;53.50;;;;;;5053649;28;20228;-60
2022/02/05 01:11:16;;;;;;;2.30;1.20;;;17.10;53.40;;;;;;5052899;28;20498;-63
2022/02/05 01:13:45;;;;;;;1.42;1.20;;;17.20;53.40;;;;;;5071828;28;20171;-65
2022/02/05 01:16:31;;;;;;;2.85;1.05;;;17.10;53.40;;;;;;5071558;28;20281;-61
2022/02/05 01:18:56;;;;;;;1.75;1.40;;;17.10;53.50;;;;;;5074597;28;20182;-62
2022/02/05 01:21:38;;;;;;;2.60;1.40;;;17.10;53.40;;;;;;5075531;28;20167;-60
2022/02/05 01:24:07;;;;;;;2.35;1.30;;;17.10;53.40;;;;;;5075313;28;20186;-61
2022/02/05 01:26:41;;;;;;;2.10;1.40;;;17.10;53.40;;;;;;5074793;28;20270;-60
2022/02/05 01:29:22;;;;;;;2.17;1.20;;;17.10;53.40;;;;;;5074784;28;20308;-59
2022/02/05 01:31:53;;;;;;;3.38;1.35;;;17.10;53.40;;;;;;5074447;28;20174;-59
2022/02/05 01:34:41;;;;;;;2.33;1.25;;;17.10;53.40;;;;;;5075382;28;20178;-60
2022/02/05 01:53:22;;;;;;;3.72;1.42;;;17.00;53.40;;;;;;5073947;28;20225;-60
2022/02/05 01:56:11;;;;;;;3.22;1.35;;;17.00;53.40;;;;;;5043877;28;20260;-60
2022/02/05 01:58:55;;;;;;;1.98;1.20;;;17.00;53.30;;;;;;5074864;28;20175;-59
2022/02/05 02:09:46;;;;;;;1.30;1.10;;;16.90;53.30;;;;;;5074449;28;20175;-60
2022/02/05 02:12:16;;;;;;;1.13;1.02;;;16.90;53.30;;;;;;5074357;28;20261;-61
2022/02/05 02:14:56;;;;;;;2.40;1.20;;;16.90;53.40;;;;;;5073684;28;20237;-61
2022/02/05 02:20:23;;;;;;;1.38;0.95;;;16.90;53.40;;;;;;5074147;28;20235;-60
2022/02/05 02:28:25;;;;;;;1.63;1.30;;;16.90;54.00;;;;;;5071889;28;20257;-59
2022/02/05 02:31:01;;;;;;;2.78;1.13;;;16.80;53.30;;;;;;5074000;28;20196;-60
2022/02/05 02:33:34;;;;;;;1.15;1.00;;;16.80;53.30;;;;;;5074142;28;20543;-59
2022/02/05 02:36:00;;;;;;;2.80;1.27;;;16.80;53.20;;;;;;5072937;28;20206;-59
2022/02/05 02:38:35;;;;;;;1.63;1.02;;;16.80;53.30;;;;;;5073866;28;20187;-60
2022/02/05 02:41:11;;;;;;;2.53;1.20;;;16.80;53.20;;;;;;5073615;28;20610;-60
2022/02/05 02:43:37;;;;;;;1.58;0.95;;;16.80;53.20;;;;;;5073196;28;20220;-59
2022/02/05 02:46:02;;;;;;;2.13;1.33;;;16.80;53.30;;;;;;5073789;28;20211;-60
2022/02/05 02:48:28;;;;;;;1.65;1.20;;;16.80;53.30;;;;;;5073802;28;20202;-60
2022/02/05 02:56:43;;;;;;;1.45;1.13;;;16.80;53.20;;;;;;5010769;28;20212;-60
2022/02/05 02:59:23;;;;;;;1.92;1.20;;;16.80;53.20;;;;;;5011257;28;20180;-60
2022/02/05 03:01:56;;;;;;;1.73;1.17;;;16.70;53.20;;;;;;5053341;28;20186;-60
2022/02/05 03:04:22;;;;;;;1.92;1.10;;;16.80;53.20;;;;;;5072860;28;20262;-59
2022/02/05 03:06:47;;;;;;;1.92;1.10;;;16.80;53.20;;;;;;5073286;28;20535;-59
2022/02/05 03:09:12;;;;;;;3.03;1.35;;;16.70;53.20;;;;;;5073211;28;20318;-60
2022/02/05 03:11:38;;;;;;;1.80;1.10;;;16.70;53.10;;;;;;5072493;28;20163;-61
2022/02/05 03:14:04;;;;;;;2.80;1.33;;;16.70;53.10;;;;;;5072879;28;20239;-62
2022/02/05 03:16:35;;;;;;;1.75;1.27;;;16.70;53.10;;;;;;5073194;28;20225;-61
2022/02/05 03:19:10;;;;;;;1.70;1.10;;;16.70;53.20;;;;;;5072368;28;20187;-61
2022/02/05 03:21:36;;;;;;;2.58;1.40;;;16.70;53.30;;;;;;5073086;28;20248;-60
2022/02/05 03:24:03;;;;;;;2.55;0.95;;;16.70;53.20;;;;;;5072666;28;20228;-60
2022/02/05 03:26:28;;;;;;;2.38;1.20;;;16.70;53.20;;;;;;5072357;28;20262;-60
2022/02/05 03:28:54;;;;;;;3.10;1.02;;;16.60;53.10;;;;;;5072727;28;20253;-60
2022/02/05 03:31:19;;;;;;;2.33;1.00;;;16.60;53.20;;;;;;5072127;28;20182;-60
2022/02/05 03:33:45;;;;;;;2.22;1.20;;;16.60;53.20;;;;;;5073078;28;20175;-59
2022/02/05 03:36:10;;;;;;;2.67;1.08;;;16.60;53.20;;;;;;5072555;28;20199;-60
2022/02/05 03:38:36;;;;;;;2.20;1.30;;;16.60;53.10;;;;;;5072176;28;20595;-60
2022/02/05 03:41:01;;;;;;;1.48;1.00;;;16.60;53.10;;;;;;5072095;28;20273;-60
2022/02/05 03:43:27;;;;;;;2.50;1.10;;;16.60;53.10;;;;;;5072877;28;20184;-60
2022/02/05 03:45:52;;;;;;;1.20;1.10;;;16.60;53.20;;;;;;5071821;28;20171;-60
2022/02/05 03:48:18;;;;;;;3.20;1.30;;;16.60;53.10;;;;;;5072812;28;20182;-60
2022/02/05 03:50:43;;;;;;;2.15;1.10;;;16.60;53.10;;;;;;5072346;28;20505;-60
2022/02/05 03:53:09;;;;;;;1.63;1.20;;;16.60;53.10;;;;;;5071376;28;20230;-61
2022/02/05 03:55:35;;;;;;;1.95;1.33;;;16.60;53.10;;;;;;5072344;28;20648;-61
2022/02/05 03:58:01;;;;;;;2.80;1.20;;;16.60;53.00;;;;;;5072057;28;20205;-60
2022/02/05 04:00:26;;;;;;;1.67;1.23;;;16.60;53.00;;;;;;5071898;28;20572;-60
2022/02/05 04:02:52;;;;;;;3.28;1.30;;;16.50;53.00;;;;;;5072401;28;20231;-60
2022/02/05 04:05:18;;;;;;;1.73;1.10;;;16.60;53.10;;;;;;5072538;28;20356;-60
2022/02/05 04:07:48;;;;;;;1.38;1.15;;;16.50;53.10;;;;;;5071665;28;20269;-60
2022/02/05 04:10:17;;;;;;;1.48;1.17;;;16.50;53.00;;;;;;5072006;28;20185;-61
2022/02/05 04:18:11;;;;;;;1.65;1.10;;;16.50;52.90;;;;;;5071815;28;20177;-61
2022/02/05 04:20:40;;;;;;;1.65;0.88;;;16.50;53.10;;;;;;5071325;28;20166;-60
2022/02/05 04:23:05;;;;;;;1.40;1.10;;;16.50;53.00;;;;;;5054021;28;20193;-60
2022/02/05 04:25:31;;;;;;;2.22;1.20;;;16.50;53.20;;;;;;5072139;28;20175;-60
2022/02/05 04:27:56;;;;;;;3.50;1.27;;;16.50;53.10;;;;;;5053199;28;20193;-60
2022/02/05 04:30:22;;;;;;;1.45;1.10;;;16.50;53.10;;;;;;5072213;28;20555;-60
2022/02/05 04:32:49;;;;;;;3.08;1.50;;;16.50;53.00;;;;;;5072139;28;20564;-60
2022/02/05 04:35:15;;;;;;;2.78;1.33;;;16.40;53.10;;;;;;5070950;28;20182;-61
2022/02/05 04:37:41;;;;;;;3.50;1.27;;;16.50;53.10;;;;;;5071998;28;20685;-60
2022/02/05 04:56:00;;;;;;;3.28;1.27;;;16.40;53.00;;;;;;5075232;28;20182;-61
2022/02/05 05:01:04;;;;;;;2.35;1.00;;;16.40;53.00;;;;;;5075941;28;20162;-60
2022/02/05 05:06:12;;;;;;;1.63;1.05;;;16.30;53.10;;;;;;5075574;28;20269;-60
2022/02/05 05:08:53;;;;;;;1.45;0.95;;;16.40;53.10;;;;;;5075648;28;20261;-60
2022/02/05 05:19:30;;;;;;;2.15;1.27;;;16.30;53.00;;;;;;5075078;28;20240;-60
2022/02/05 05:22:00;;;;;;;2.33;1.10;;;16.30;53.10;;;;;;5075384;28;20644;-61
2022/02/05 05:24:26;;;;;;;3.20;1.08;;;16.30;53.20;;;;;;5074755;28;20695;-60
2022/02/05 05:26:51;;;;;;;1.83;1.00;;;16.30;53.10;;;;;;5075374;28;20202;-60
2022/02/05 05:29:17;;;;;;;2.97;1.48;;;16.30;53.10;;;;;;5074995;28;20200;-60
2022/02/05 05:31:43;;;;;;;2.67;1.40;;;16.30;53.10;;;;;;5074464;28;20196;-60
2022/02/05 05:34:11;;;;;;;2.03;1.20;;;16.30;53.20;;;;;;5075018;28;20171;-59
2022/02/05 05:36:37;;;;;;;2.08;1.10;;;16.30;53.20;;;;;;5074929;28;20238;-59
2022/02/05 05:39:03;;;;;;;2.42;0.90;;;16.30;53.10;;;;;;5074221;28;20194;-60
2022/02/05 05:41:30;;;;;;;2.20;1.40;;;16.30;53.20;;;;;;5075089;28;20712;-60
2022/02/05 05:46:43;;;;;;;2.70;1.15;;;16.20;53.00;;;;;;5074376;28;20253;-59
2022/02/05 05:49:13;;;;;;;2.28;1.10;;;16.20;53.10;;;;;;5074926;28;20201;-60
2022/02/05 05:51:38;;;;;;;2.22;1.10;;;16.20;53.10;;;;;;5074989;28;20175;-60
2022/02/05 05:54:04;;;;;;;1.67;1.08;;;16.20;53.10;;;;;;5073799;28;20233;-60
2022/02/05 05:56:29;;;;;;;3.13;1.55;;;16.20;53.10;;;;;;5074612;28;20206;-60
2022/02/05 05:58:55;;;;;;;2.42;1.20;;;16.20;53.10;;;;;;5073744;28;20471;-59
2022/02/05 06:01:20;;;;;;;1.88;1.20;;;16.20;53.20;;;;;;5074639;28;20220;-59
2022/02/05 06:03:46;;;;;;;2.65;1.17;;;16.20;53.20;;;;;;5074641;28;20171;-59
2022/02/05 06:06:11;;;;;;;3.15;1.25;;;16.20;53.20;;;;;;5073727;28;20536;-59
2022/02/05 06:08:37;;;;;;;1.92;1.20;;;16.20;53.10;;;;;;5074633;28;20171;-60
2022/02/05 06:11:02;;;;;;;3.20;1.38;;;16.20;53.20;;;;;;5074164;28;20173;-60
2022/02/05 06:13:28;;;;;;;1.00;0.80;;;16.20;53.20;;;;;;5073970;28;20527;-61
2022/02/05 06:15:55;;;;;;;2.58;1.60;;;16.20;53.20;;;;;;5074047;28;20669;-61
2022/02/05 06:18:21;;;;;;;1.73;1.00;;;16.20;53.30;;;;;;5074638;28;20544;-60
2022/02/05 06:20:46;;;;;;;2.90;1.42;;;16.10;53.20;;;;;;5073719;28;20668;-60
2022/02/05 06:23:12;;;;;;;1.75;0.75;;;16.10;53.20;;;;;;5073990;28;20170;-59
2022/02/05 06:25:41;;;;;;;2.55;1.23;;;16.20;53.20;;;;;;5074204;28;20209;-60
2022/02/05 06:28:06;;;;;;;1.83;1.30;;;16.10;53.20;;;;;;5073350;28;20209;-60
2022/02/05 06:30:32;;;;;;;2.50;1.23;;;16.10;53.20;;;;;;5074238;28;20206;-59
2022/02/05 06:32:57;;;;;;;1.70;1.20;;;16.10;53.20;;;;;;5073881;28;20202;-59
2022/02/05 06:35:23;;;;;;;2.35;1.08;;;16.10;53.20;;;;;;5073463;28;20234;-60
2022/02/05 06:37:48;;;;;;;2.88;1.20;;;16.10;53.20;;;;;;5074056;28;20260;-59
2022/02/05 06:40:14;;;;;;;2.88;1.20;;;16.10;53.30;;;;;;5073844;28;20170;-59
2022/02/05 06:42:44;;;;;;;1.63;1.20;;;16.10;53.30;;;;;;5073106;28;20543;-59
2022/02/05 06:45:09;;;;;;;3.80;1.55;;;16.00;53.30;;;;;;5073756;28;20177;-60
2022/02/05 06:47:35;;;;;;;2.22;1.10;;;16.10;53.30;;;;;;5074033;28;20166;-59
2022/02/05 06:50:00;;;;;;;2.35;1.20;;;16.00;53.20;;;;;;5072707;28;20239;-59
2022/02/05 06:52:26;;;;;;;2.33;1.27;;;16.00;53.20;;;;;;5073443;28;20634;-60
2022/02/05 06:54:51;;;;;;;2.78;1.20;;;16.00;53.20;;;;;;5073473;28;20559;-59
2022/02/05 06:57:17;;;;;;;1.95;1.02;;;16.00;53.10;;;;;;5072970;28;20669;-59
2022/02/05 06:59:42;;;;;;;1.60;1.05;;;16.00;53.10;;;;;;5073727;28;20231;-59
2022/02/05 07:02:08;;;;;;;2.08;1.20;;;16.00;53.20;;;;;;5073129;28;20174;-59
2022/02/05 07:04:41;;;;;;;3.58;1.67;;;16.00;53.30;;;;;;5072738;28;20197;-59
2022/02/05 07:07:06;;;;;;;3.03;1.15;;;16.00;53.30;;;;;;5073103;28;20174;-59
2022/02/05 07:09:32;;;;;;;2.70;1.27;;;16.10;53.30;;;;;;5072484;28;20163;-60
2022/02/05 07:12:00;;;;;;;2.20;1.13;;;16.10;53.20;;;;;;5073316;28;20205;-61
2022/02/05 07:14:32;;;;;;;2.22;1.38;;;16.10;53.10;;;;;;5072549;28;20217;-61
2022/02/05 07:17:11;;;;;;;1.30;0.90;;;16.20;53.10;;;;;;5072289;28;20293;-60
2022/02/05 07:19:56;;;;;;;1.23;0.93;;;16.20;53.10;;;;;;5073084;28;20170;-60
2022/02/05 07:22:23;;;;;;;2.15;1.30;;;16.30;53.10;;;;;;5073489;28;20205;-60
2022/02/05 07:25:00;;;;;;;3.25;1.33;;;16.40;53.10;;;;;;5072647;28;20170;-60
2022/02/05 07:30:10;;;;;;;1.23;1.00;;;16.50;53.00;;;;;;5072803;28;20196;-59
2022/02/05 07:32:35;;;;;;;2.20;1.17;;;16.60;52.80;;;;;;5072218;28;20525;-59
2022/02/05 07:35:01;;;;;;;1.33;1.00;;;16.70;52.80;;;;;;5073249;28;20689;-60
2022/02/05 07:37:26;;;;;;;4.03;1.00;;;16.90;52.60;;;;;;5072483;28;20728;-59
2022/02/05 07:39:52;;;;;;;1.80;0.93;;;17.10;52.50;;;;;;5073570;28;20174;-59
2022/02/05 07:42:18;;;;;;;2.25;1.17;;;17.30;52.10;;;;;;5073165;28;20220;-59
2022/02/05 07:44:46;;;;;;;3.00;0.90;;;17.40;51.80;;;;;;5072344;28;20182;-60
2022/02/05 07:47:12;;;;;;;1.88;0.90;;;17.50;51.60;;;;;;5072894;28;20555;-61
2022/02/05 07:49:39;;;;;;;3.00;1.20;;;17.50;51.50;;;;;;5055232;28;20617;-60
2022/02/05 07:52:05;;;;;;;2.38;1.10;;;17.60;51.50;;;;;;5071871;28;20270;-59
2022/02/05 07:54:31;;;;;;;1.77;0.85;;;17.60;52.10;;;;;;5072882;28;20187;-60
2022/02/05 07:56:57;;;;;;;2.25;1.30;;;17.60;51.30;;;;;;5072786;28;20206;-60
2022/02/05 07:59:25;;;;;;;1.35;0.93;;;17.50;51.40;;;;;;5072031;28;20177;-60
2022/02/05 08:01:51;;;;;;;1.67;0.98;;;17.50;51.50;;;;;;5072747;28;20648;-60
2022/02/05 08:04:16;;;;;;;1.30;0.90;;;17.50;51.70;;;;;;5072311;28;20182;-59
2022/02/05 08:06:46;;;;;;;1.63;0.90;;;17.50;51.70;;;;;;5071749;28;20239;-69
2022/02/05 08:09:21;;;;;;;2.35;1.10;;;17.60;51.80;;;;;;5071928;28;20175;-68
2022/02/05 08:11:53;;;;;;;2.10;1.10;;;17.70;51.80;;;;;;5072067;28;20659;-68
2022/02/05 08:14:20;;;;;;;1.98;1.00;;;17.90;52.40;;;;;;5071634;28;20192;-64
2022/02/05 08:19:11;;;;;;;1.17;0.90;;;18.30;51.20;;;;;;5070499;28;20170;-67
2022/02/05 08:21:37;;;;;;;2.85;1.45;;;18.40;51.10;;;;;;5054381;28;20644;-68
2022/02/05 08:24:02;;;;;;;3.33;1.40;;;18.50;51.40;;;;;;5057321;28;20170;-67
2022/02/05 08:26:31;;;;;;;2.92;1.30;;;18.60;51.60;;;;;;5070928;28;20186;-67
2022/02/05 08:28:58;;;;;;;2.28;1.10;;;18.70;51.50;;;;;;5059826;28;20233;-66
2022/02/05 08:31:24;;;;;;;2.92;1.13;;;18.70;51.50;;;;;;5051970;28;20183;-69
2022/02/05 08:33:49;;;;;;;2.15;1.20;;;18.70;51.50;;;;;;5051272;28;20526;-70
2022/02/05 08:36:16;;;;;;;2.42;1.20;;;18.70;51.50;;;;;;5052214;28;20560;-71
2022/02/05 08:38:42;;;;;;;2.40;1.20;;;18.80;51.80;;;;;;5053751;28;20265;-68
2022/02/05 08:41:07;;;;;;;4.47;1.40;;;18.80;51.90;;;;;;5051662;28;20687;-68
2022/02/05 08:43:33;;;;;;;3.80;1.55;;;18.70;51.90;;;;;;5071767;28;20269;-68
2022/02/05 08:45:58;;;;;;;2.78;2.08;;;18.70;52.10;;;;;;5071642;28;20174;-68
2022/02/05 08:48:24;;;;;;;3.45;1.23;;;18.70;52.10;;;;;;5071013;28;20197;-67
2022/02/05 08:50:49;;;;;;;1.52;0.90;;;18.70;52.40;;;;;;5071555;28;20186;-67
2022/02/05 08:53:20;;;;;;;2.15;1.02;;;18.70;52.30;;;;;;5060332;28;20218;-68
2022/02/05 08:55:47;;;;;;;2.53;1.52;;;18.70;52.30;;;;;;5051128;28;20217;-68
2022/02/05 08:58:13;;;;;;;1.95;1.40;;;18.60;52.40;;;;;;5051749;28;20309;-69
2022/02/05 09:00:46;;;;;;;2.47;1.25;;;18.60;52.50;;;;;;5051633;28;20260;-69
2022/02/05 09:03:23;;;;;;;3.22;1.27;;;18.50;52.60;;;;;;5050805;28;20535;-68
2022/02/05 09:05:50;;;;;;;2.45;1.00;;;18.40;52.70;;;;;;5051830;28;20610;-68
2022/02/05 09:08:23;;;;;;;3.50;1.67;;;18.40;52.80;;;;;;5051249;28;20605;-67
2022/02/05 09:16:15;;;;;;;2.70;1.50;;;18.30;52.80;;;;;;5050610;28;20658;-68
2022/02/05 09:18:42;;;;;;;6.10;1.67;;;18.20;53.00;;;;;;5051761;28;20187;-67
2022/02/05 09:21:07;;;;;;;3.60;1.40;;;18.30;53.00;;;;;;5051784;28;20175;-67
2022/02/05 09:23:33;;;;;;;1.90;1.20;;;18.30;52.90;;;;;;5050890;28;20645;-67
2022/02/05 09:26:00;;;;;;;2.55;1.20;;;18.30;52.90;;;;;;5051153;28;20644;-67
2022/02/05 09:28:28;;;;;;;4.13;1.58;;;18.40;52.80;;;;;;5060199;28;20182;-68
2022/02/05 09:33:31;;;;;;;4.28;1.35;;;18.30;52.80;;;;;;5071432;28;20598;-69
2022/02/05 09:35:57;;;;;;;2.15;1.20;;;18.40;52.80;;;;;;5070923;28;20287;-69
2022/02/05 09:38:22;;;;;;;2.78;1.40;;;18.30;52.80;;;;;;5072574;28;20206;-68
2022/02/05 09:40:48;;;;;;;2.80;1.20;;;18.30;52.70;;;;;;5075048;28;20260;-69
2022/02/05 09:43:13;;;;;;;2.70;1.42;;;18.20;52.80;;;;;;5074654;28;20214;-68
2022/02/05 09:45:39;;;;;;;3.15;1.40;;;18.20;52.80;;;;;;5074120;28;20261;-68
2022/02/05 09:48:06;;;;;;;2.72;1.42;;;18.20;52.90;;;;;;5074548;28;20225;-68
2022/02/05 09:50:32;;;;;;;4.72;1.67;;;18.20;53.70;;;;;;5074920;28;20189;-68
2022/02/05 09:53:02;;;;;;;3.35;1.30;;;18.10;52.90;;;;;;5073682;28;20218;-67
2022/02/05 09:55:28;;;;;;;3.58;1.42;;;18.10;53.10;;;;;;5075048;28;20174;-69
2022/02/05 09:57:54;;;;;;;2.47;1.13;;;18.20;53.00;;;;;;5074292;28;20419;-69
2022/02/05 10:00:20;;;;;;;2.15;1.40;;;18.20;53.00;;;;;;5074593;28;20253;-68
2022/02/05 10:02:54;;;;;;;1.75;1.02;;;18.30;52.90;;;;;;5074902;28;20231;-68
2022/02/05 10:05:22;;;;;;;3.00;1.20;;;18.30;52.80;;;;;;5073935;28;20186;-68
2022/02/05 10:07:57;;;;;;;2.50;1.02;;;18.30;52.80;;;;;;5074626;28;20206;-67
2022/02/05 10:10:23;;;;;;;1.75;1.17;;;18.30;53.00;;;;;;5074383;28;20235;-67
2022/02/05 10:13:21;;;;;;;4.32;1.25;;;18.30;52.70;;;;;;5073665;28;20262;-67
2022/02/05 10:15:53;;;;;;;2.75;1.25;;;18.30;52.90;;;;;;5074415;28;20261;-67
2022/02/05 10:18:32;;;;;;;1.85;1.17;;;18.30;52.80;;;;;;5074416;28;20651;-67
2022/02/05 10:20:59;;;;;;;2.80;1.30;;;18.30;52.90;;;;;;5073599;28;20170;-67
2022/02/05 10:23:24;;;;;;;1.88;1.02;;;18.30;53.00;;;;;;5074257;28;20190;-67
2022/02/05 10:25:51;;;;;;;3.58;1.25;;;18.20;52.90;;;;;;5074385;28;20201;-67
2022/02/05 10:28:16;;;;;;;1.95;1.10;;;18.30;52.90;;;;;;5047287;28;20172;-68
2022/02/05 10:30:45;;;;;;;3.58;1.30;;;18.30;52.80;;;;;;5054114;28;20175;-68
2022/02/05 10:33:22;;;;;;;3.53;1.40;;;18.20;52.70;;;;;;5035947;28;20187;-68
2022/02/05 10:35:57;;;;;;;2.22;1.10;;;18.20;52.70;;;;;;5054023;28;20156;-68
2022/02/05 10:43:56;;;;;;;2.63;1.42;;;18.20;52.80;;;;;;5053514;28;20229;-68
2022/02/05 10:46:22;;;;;;;2.33;1.23;;;18.20;52.70;;;;;;5054001;28;20190;-67
2022/02/05 10:48:47;;;;;;;1.67;1.15;;;18.10;52.80;;;;;;5034723;28;20279;-67
2022/02/05 10:51:13;;;;;;;1.33;1.10;;;18.10;52.80;;;;;;5053116;28;20646;-67
2022/02/05 10:53:46;;;;;;;2.95;1.30;;;18.10;52.90;;;;;;5053420;28;20656;-68
2022/02/05 10:56:21;;;;;;;1.95;1.40;;;18.10;52.70;;;;;;5052563;28;20542;-68
2022/02/05 11:06:56;;;;;;;2.72;1.20;;;18.00;52.90;;;;;;5053065;28;20502;-68
2022/02/05 11:09:25;;;;;;;2.88;1.48;;;17.90;53.00;;;;;;5035194;28;20179;-67
2022/02/05 11:20:11;;;;;;;2.03;1.10;;;17.90;53.00;;;;;;5038543;28;20177;-63
2022/02/05 11:22:46;;;;;;;2.90;1.17;;;17.90;52.80;;;;;;5052298;28;20213;-63
2022/02/05 11:25:12;;;;;;;2.05;1.23;;;17.90;52.80;;;;;;5052818;28;20193;-62
2022/02/05 11:27:45;;;;;;;1.85;1.10;;;17.90;52.80;;;;;;5037367;28;20181;-63
2022/02/05 11:30:36;;;;;;;2.15;1.33;;;17.80;52.70;;;;;;5072092;28;20247;-63
2022/02/05 11:33:20;;;;;;;2.33;1.33;;;17.80;52.70;;;;;;5072713;28;20171;-63
2022/02/05 11:38:33;;;;;;;2.45;1.10;;;17.80;52.60;;;;;;5072022;28;20372;-64
2022/02/05 11:40:59;;;;;;;4.13;1.42;;;17.80;52.70;;;;;;5073158;28;20563;-63
2022/02/05 11:43:32;;;;;;;1.88;1.23;;;17.80;52.70;;;;;;5072817;28;20216;-64
2022/02/05 11:46:14;;;;;;;2.05;1.10;;;17.80;52.70;;;;;;5072138;28;20572;-63
2022/02/05 11:48:55;;;;;;;2.10;1.17;;;17.80;52.50;;;;;;5072629;28;20182;-63
2022/02/05 11:51:42;;;;;;;1.92;1.23;;;17.80;52.50;;;;;;5071832;28;20163;-63
2022/02/05 11:54:10;;;;;;;2.95;1.25;;;17.80;52.40;;;;;;5071967;28;20226;-63
2022/02/05 11:59:18;;;;;;;2.25;1.27;;;17.80;52.30;;;;;;5071386;28;20206;-64
2022/02/05 12:01:45;;;;;;;2.35;1.40;;;17.80;52.30;;;;;;5072384;28;20183;-64
2022/02/05 12:04:19;;;;;;;2.30;1.20;;;17.80;52.40;;;;;;5072270;28;20174;-64
2022/02/05 12:06:53;;;;;;;2.47;1.17;;;17.80;52.40;;;;;;5071752;28;20178;-63
2022/02/05 12:09:40;;;;;;;2.95;1.33;;;17.70;52.40;;;;;;5072220;28;20197;-63
2022/02/05 12:12:33;;;;;;;2.13;1.20;;;17.70;52.40;;;;;;5071370;28;20188;-62
2022/02/05 12:15:15;;;;;;;3.83;1.20;;;17.70;52.40;;;;;;5071927;28;20174;-62
2022/02/05 12:18:07;;;;;;;3.08;1.23;;;17.80;52.30;;;;;;5072076;28;20296;-63
2022/02/05 12:20:52;;;;;;;1.77;1.02;;;17.70;52.30;;;;;;5071662;28;20220;-68
2022/02/05 12:25:59;;;;;;;1.85;1.10;;;17.80;52.30;;;;;;5071613;28;20165;-66
2022/02/05 12:28:40;;;;;;;5.05;1.27;;;17.80;52.80;;;;;;5067087;28;20178;-66
2022/02/05 12:31:28;;;;;;;1.85;1.20;;;17.80;52.60;;;;;;5071891;28;20181;-66
2022/02/05 12:34:10;;;;;;;3.50;1.30;;;17.90;52.50;;;;;;5070933;28;20178;-67
2022/02/05 12:36:44;;;;;;;2.67;1.20;;;17.90;52.40;;;;;;5071999;28;20217;-67
2022/02/05 12:39:22;;;;;;;2.88;1.30;;;18.00;52.40;;;;;;5071634;28;20174;-66
2022/02/05 12:41:55;;;;;;;2.70;1.35;;;18.10;52.40;;;;;;5053303;28;20185;-66
2022/02/05 12:44:22;;;;;;;2.78;1.30;;;18.20;52.40;;;;;;5072093;28;20268;-66
2022/02/05 12:46:53;;;;;;;2.50;1.30;;;18.20;52.30;;;;;;5071824;28;20235;-63
2022/02/05 12:49:22;;;;;;;3.80;1.27;;;18.30;52.30;;;;;;5071965;28;20723;-64
2022/02/05 12:51:49;;;;;;;3.85;1.10;;;18.30;52.20;;;;;;5072583;28;20189;-63
2022/02/05 12:54:20;;;;;;;4.32;1.65;;;18.40;52.30;;;;;;5071096;28;20753;-63
2022/02/05 12:56:46;;;;;;;1.90;1.13;;;18.50;52.30;;;;;;5071868;28;20198;-62
2022/02/05 12:59:26;;;;;;;3.70;1.10;;;18.60;52.10;;;;;;5071493;28;20514;-69
2022/02/05 13:01:53;;;;;;;4.70;1.48;;;18.80;51.80;;;;;;5071499;28;20168;-69
2022/02/05 13:04:26;;;;;;;3.08;1.23;;;18.90;51.60;;;;;;5071966;28;20473;-69
2022/02/05 13:07:07;;;;;;;1.77;1.20;;;18.90;51.50;;;;;;5071584;28;20489;-66
2022/02/05 13:09:36;;;;;;;3.35;1.20;;;18.90;51.50;;;;;;5060631;28;20191;-66
2022/02/05 13:12:04;;;;;;;3.50;1.17;;;19.00;51.40;;;;;;5059477;28;20586;-65
2022/02/05 13:14:39;;;;;;;2.97;1.35;;;19.00;51.30;;;;;;5065296;28;20174;-65
2022/02/05 13:17:08;;;;;;;3.42;1.00;;;19.20;51.10;;;;;;5063234;28;20233;-65
2022/02/05 13:19:53;;;;;;;2.50;1.05;;;19.10;51.00;;;;;;5061873;28;20261;-64
2022/02/05 13:28:02;;;;;;;2.20;1.30;;;19.30;50.80;;;;;;5058277;28;20257;-67
2022/02/05 13:36:08;;;;;;;2.20;1.20;;;19.30;50.80;;;;;;5074801;28;20275;-67
2022/02/05 13:39:00;;;;;;;2.47;1.00;;;19.30;50.70;;;;;;5075076;28;20182;-67
2022/02/05 13:44:17;;;;;;;3.25;1.35;;;19.10;51.10;;;;;;5074120;28;20289;-65
2022/02/05 13:47:18;;;;;;;2.35;1.15;;;19.00;51.00;;;;;;5074649;28;20174;-65
2022/02/05 13:50:00;;;;;;;1.33;1.02;;;19.00;51.00;;;;;;5038540;28;20660;-66
2022/02/05 13:52:34;;;;;;;1.63;1.08;;;19.00;51.00;;;;;;5074047;28;20218;-66
2022/02/05 13:55:16;;;;;;;3.45;1.20;;;19.00;51.00;;;;;;5074370;28;20185;-66
2022/02/05 13:57:55;;;;;;;2.75;1.10;;;18.90;51.20;;;;;;5073709;28;20669;-68
2022/02/05 14:00:20;;;;;;;2.95;1.17;;;18.90;51.20;;;;;;5074810;28;20342;-66
2022/02/05 14:02:56;;;;;;;2.20;1.20;;;18.90;51.30;;;;;;5074995;28;20641;-63
2022/02/05 14:05:21;;;;;;;1.20;1.02;;;18.90;51.20;;;;;;5073997;28;20174;-62
2022/02/05 14:07:47;;;;;;;3.40;1.13;;;18.90;51.20;;;;;;5074574;28;20254;-68
2022/02/05 14:10:14;;;;;;;3.63;1.42;;;18.80;51.70;;;;;;5074225;28;20269;-67
2022/02/05 14:12:53;;;;;;;2.03;1.05;;;18.80;51.90;;;;;;5073839;28;20193;-67
2022/02/05 14:15:19;;;;;;;2.58;1.00;;;18.70;51.90;;;;;;5074426;28;20484;-66
2022/02/05 14:17:46;;;;;;;3.10;1.13;;;18.70;51.90;;;;;;5074469;28;20297;-68
2022/02/05 14:20:13;;;;;;;2.08;1.20;;;18.70;51.70;;;;;;5056059;28;20174;-67
2022/02/05 14:22:40;;;;;;;2.60;1.25;;;18.70;52.20;;;;;;5074365;28;20189;-67
2022/02/05 14:25:15;;;;;;;5.25;1.38;;;18.70;51.70;;;;;;5074203;28;20185;-66
2022/02/05 14:28:02;;;;;;;4.35;1.15;;;18.60;51.50;;;;;;5071156;28;20179;-66
2022/02/05 14:30:29;;;;;;;5.90;1.65;;;18.60;51.50;;;;;;5053860;28;20541;-67
2022/02/05 14:32:57;;;;;;;1.67;0.93;;;18.60;51.60;;;;;;5052665;28;20187;-68
2022/02/05 14:40:43;;;;;;;4.35;1.20;;;18.40;51.70;;;;;;5053289;28;20288;-68
2022/02/05 14:43:08;;;;;;;2.38;1.30;;;18.40;51.70;;;;;;5053436;28;20175;-67
2022/02/05 14:45:34;;;;;;;1.83;1.25;;;18.40;51.90;;;;;;5053824;28;20171;-68
2022/02/05 14:48:00;;;;;;;2.80;1.20;;;18.40;51.90;;;;;;5052752;28;20171;-67
2022/02/05 14:50:25;;;;;;;3.65;1.25;;;18.30;51.90;;;;;;5053888;28;20630;-68
2022/02/05 14:52:51;;;;;;;2.60;1.00;;;18.40;51.80;;;;;;5053519;28;20219;-68
2022/02/05 14:55:18;;;;;;;3.83;1.20;;;18.40;51.70;;;;;;5052872;28;20276;-68
2022/02/05 14:57:44;;;;;;;1.75;1.27;;;18.30;51.60;;;;;;5053672;28;20288;-68
2022/02/05 15:00:10;;;;;;;2.97;1.30;;;18.30;51.60;;;;;;5053454;28;20223;-68
2022/02/05 15:02:35;;;;;;;3.10;1.35;;;18.30;51.70;;;;;;5053106;28;20181;-68
2022/02/05 15:05:11;;;;;;;2.25;1.15;;;18.20;51.70;;;;;;5053492;28;20258;-66
2022/02/05 15:07:37;;;;;;;2.65;1.30;;;18.10;51.70;;;;;;5052748;28;20669;-64
2022/02/05 15:10:03;;;;;;;3.30;1.00;;;18.20;51.80;;;;;;5053184;28;20183;-67
2022/02/05 15:12:28;;;;;;;2.08;1.27;;;18.20;51.90;;;;;;5053199;28;20260;-68
2022/02/05 15:14:54;;;;;;;3.17;1.15;;;18.20;51.90;;;;;;5052213;28;20668;-67
2022/02/05 15:17:20;;;;;;;1.40;0.82;;;18.20;51.90;;;;;;5053217;28;20222;-67
2022/02/05 15:19:45;;;;;;;2.80;1.05;;;18.20;51.80;;;;;;5053383;28;20171;-67
2022/02/05 15:22:11;;;;;;;2.65;1.42;;;18.30;51.80;;;;;;5052003;28;20186;-67
2022/02/05 15:24:36;;;;;;;2.50;1.20;;;18.30;51.70;;;;;;5052990;28;20496;-65
2022/02/05 15:27:02;;;;;;;2.92;1.13;;;18.30;51.70;;;;;;5052600;28;20185;-66
2022/02/05 15:29:28;;;;;;;1.77;1.13;;;18.30;51.70;;;;;;5069806;28;20185;-68
2022/02/05 15:31:53;;;;;;;2.47;1.30;;;18.30;51.70;;;;;;5072687;28;20572;-67
2022/02/05 15:34:19;;;;;;;4.05;1.40;;;18.30;51.70;;;;;;5073278;28;20187;-68
2022/02/05 15:36:59;;;;;;;2.78;1.15;;;18.30;51.80;;;;;;5071910;28;20206;-67
2022/02/05 15:44:52;;;;;;;1.17;1.00;;;18.30;51.90;;;;;;5071941;28;20235;-66
2022/02/05 15:47:18;;;;;;;2.03;1.05;;;18.30;51.90;;;;;;5072562;28;20178;-66
2022/02/05 15:49:43;;;;;;;1.27;1.17;;;18.40;51.80;;;;;;5071987;28;20166;-67
2022/02/05 15:52:11;;;;;;;2.17;1.10;;;18.40;51.70;;;;;;5072293;28;20247;-68
2022/02/05 15:54:36;;;;;;;2.65;1.10;;;18.40;51.70;;;;;;5072459;28;20193;-66
2022/02/05 15:57:17;;;;;;;3.05;1.30;;;18.50;51.60;;;;;;5072021;28;20202;-66